Time;durP1;ratioP1;P1;durP2;ratioP2;P2;SDS_P1;SDS_P2;PMS_P1;PMS_P2;Temp;Humidity;BMP_temperature;BMP_pressure;BME280_temperature;BME280_humidity;BME280_pressure;Samples;Min_cycle;Max_cycle;Signal;HPM_P1;HPM_P2
2023/12/14 00:01:20;;;;;;;11.80;7.30;;;3.50;1.00;;;;;;5068087;28;20426;-66
2023/12/14 00:03:45;;;;;;;14.20;7.13;;;3.50;1.00;;;;;;5052749;28;20172;-65
2023/12/14 00:06:12;;;;;;;17.57;6.70;;;3.50;1.00;;;;;;5052134;28;20266;-68
2023/12/14 00:08:38;;;;;;;14.20;7.37;;;3.50;1.00;;;;;;5053954;28;20225;-65
2023/12/14 00:11:07;;;;;;;11.90;7.37;;;3.50;1.00;;;;;;5052227;28;20446;-64
2023/12/14 00:13:33;;;;;;;8.37;6.80;;;3.60;1.00;;;;;;5053975;28;20464;-65
2023/12/14 00:15:59;;;;;;;11.87;7.40;;;3.60;1.00;;;;;;5052272;28;20433;-64
2023/12/14 00:18:25;;;;;;;11.67;6.90;;;3.60;1.00;;;;;;5063514;28;20801;-66
2023/12/14 00:20:52;;;;;;;10.90;6.97;;;3.60;1.00;;;;;;5073704;28;20412;-67
2023/12/14 00:23:18;;;;;;;14.17;7.13;;;3.50;1.00;;;;;;5072779;28;20208;-73
2023/12/14 00:25:43;;;;;;;10.43;6.77;;;3.50;1.00;;;;;;5071116;28;20436;-65
2023/12/14 00:28:09;;;;;;;9.40;7.20;;;3.50;1.00;;;;;;5072646;28;20447;-67
2023/12/14 00:30:35;;;;;;;8.97;6.70;;;3.50;1.00;;;;;;5072262;28;20677;-67
2023/12/14 00:33:00;;;;;;;16.30;6.37;;;3.50;1.00;;;;;;5073539;28;20166;-64
2023/12/14 00:35:26;;;;;;;12.07;7.53;;;3.50;1.00;;;;;;5068993;28;20198;-68
2023/12/14 00:37:52;;;;;;;10.27;6.70;;;3.50;1.00;;;;;;5039869;28;20325;-66
2023/12/14 00:40:17;;;;;;;12.73;7.53;;;3.50;1.00;;;;;;5032275;28;20229;-66
2023/12/14 00:42:43;;;;;;;9.93;6.77;;;3.50;1.00;;;;;;5033366;28;20630;-67
2023/12/14 00:45:09;;;;;;;14.83;7.17;;;3.50;1.00;;;;;;5054397;28;20193;-65
2023/12/14 00:47:35;;;;;;;9.20;6.97;;;3.50;1.00;;;;;;5073405;28;20227;-65
2023/12/14 00:50:00;;;;;;;11.00;7.40;;;3.50;1.00;;;;;;5064830;28;20510;-64
2023/12/14 00:52:26;;;;;;;14.33;7.20;;;3.50;1.00;;;;;;5053366;28;20178;-65
2023/12/14 00:54:52;;;;;;;21.57;7.50;;;3.40;1.00;;;;;;5052614;28;20805;-67
2023/12/14 00:57:17;;;;;;;10.90;7.00;;;3.40;1.00;;;;;;5053234;28;20213;-67
2023/12/14 00:59:43;;;;;;;11.33;6.63;;;3.50;1.00;;;;;;5052787;28;20167;-70
2023/12/14 01:02:09;;;;;;;15.03;6.30;;;3.50;1.00;;;;;;5053352;28;20170;-65
2023/12/14 01:04:35;;;;;;;13.90;6.87;;;3.50;1.00;;;;;;5051417;28;20181;-68
2023/12/14 01:07:00;;;;;;;9.63;6.67;;;3.50;1.00;;;;;;5047214;28;20223;-66
2023/12/14 01:09:26;;;;;;;10.80;6.90;;;3.50;1.00;;;;;;5066964;28;20184;-67
2023/12/14 01:11:52;;;;;;;8.90;6.00;;;3.60;1.00;;;;;;5072242;28;20178;-65
2023/12/14 01:14:17;;;;;;;10.50;7.00;;;3.50;1.00;;;;;;5073336;28;20201;-64
2023/12/14 01:16:43;;;;;;;10.97;7.30;;;3.50;1.00;;;;;;5071913;28;20249;-67
2023/12/14 01:19:08;;;;;;;13.57;6.20;;;3.50;1.00;;;;;;5070246;28;20182;-65
2023/12/14 01:21:34;;;;;;;9.63;7.30;;;3.50;1.00;;;;;;5073175;28;20178;-67
2023/12/14 01:24:00;;;;;;;14.37;7.30;;;3.50;1.00;;;;;;5073142;28;20174;-65
2023/12/14 01:26:27;;;;;;;10.07;7.63;;;3.50;1.00;;;;;;5070632;28;20174;-65
2023/12/14 01:28:53;;;;;;;7.40;6.20;;;3.40;1.00;;;;;;5070596;28;20421;-64
2023/12/14 01:31:18;;;;;;;11.50;7.23;;;3.40;1.00;;;;;;5051800;28;20453;-68
2023/12/14 01:33:47;;;;;;;13.70;7.20;;;3.40;1.00;;;;;;5066708;28;20277;-68
2023/12/14 01:36:23;;;;;;;10.70;6.53;;;3.50;1.00;;;;;;5072068;28;20973;-67
2023/12/14 01:38:49;;;;;;;10.40;6.83;;;3.40;1.00;;;;;;5071626;28;20489;-65
2023/12/14 01:41:15;;;;;;;20.93;7.63;;;3.40;1.00;;;;;;5071941;28;20420;-67
2023/12/14 01:43:41;;;;;;;16.80;6.87;;;3.40;1.00;;;;;;5053283;28;20933;-65
2023/12/14 01:46:07;;;;;;;8.80;7.30;;;3.40;1.00;;;;;;5051747;28;20401;-65
2023/12/14 01:48:33;;;;;;;9.77;6.30;;;3.40;1.00;;;;;;5051309;28;20818;-64
2023/12/14 01:50:58;;;;;;;11.03;6.83;;;3.30;1.00;;;;;;5060309;28;20435;-66
2023/12/14 01:53:24;;;;;;;9.30;6.50;;;3.40;1.00;;;;;;5072858;28;20169;-67
2023/12/14 01:55:49;;;;;;;11.73;7.20;;;3.40;1.00;;;;;;5069244;28;20213;-65
2023/12/14 01:58:15;;;;;;;8.27;6.43;;;3.40;1.00;;;;;;5072149;28;20271;-67
2023/12/14 02:00:44;;;;;;;9.53;7.50;;;3.40;1.00;;;;;;5076532;28;20177;-64
2023/12/14 02:03:10;;;;;;;11.20;8.20;;;3.40;1.00;;;;;;5076175;28;20246;-65
2023/12/14 02:05:36;;;;;;;11.97;6.63;;;3.40;1.00;;;;;;5075431;28;20822;-68
2023/12/14 02:08:02;;;;;;;10.77;6.70;;;3.40;1.00;;;;;;5076164;28;20205;-65
2023/12/14 02:10:28;;;;;;;16.60;7.93;;;3.30;1.00;;;;;;5076478;28;20400;-67
2023/12/14 02:12:53;;;;;;;10.37;7.67;;;3.30;1.00;;;;;;5068012;28;20178;-67
2023/12/14 02:15:20;;;;;;;12.07;6.10;;;3.40;1.00;;;;;;5072533;28;20206;-67
2023/12/14 02:17:45;;;;;;;13.37;7.60;;;3.40;1.00;;;;;;5076097;28;20658;-66
2023/12/14 02:20:11;;;;;;;12.80;7.53;;;3.30;1.00;;;;;;5076144;28;20396;-65
2023/12/14 02:22:55;;;;;;;17.90;7.03;;;3.40;1.00;;;;;;5063296;28;20701;-64
2023/12/14 02:25:22;;;;;;;11.00;7.27;;;3.30;1.00;;;;;;5053988;28;20190;-67
2023/12/14 02:27:49;;;;;;;13.33;7.60;;;3.30;1.00;;;;;;5055645;28;20426;-65
2023/12/14 02:30:15;;;;;;;12.10;7.07;;;3.30;1.00;;;;;;5054142;28;20578;-68
2023/12/14 02:32:41;;;;;;;12.03;7.23;;;3.30;1.00;;;;;;5042769;28;20502;-68
2023/12/14 02:35:07;;;;;;;10.37;6.87;;;3.30;1.00;;;;;;5033855;28;20592;-68
2023/12/14 02:37:34;;;;;;;8.80;6.53;;;3.30;1.00;;;;;;5065553;28;20251;-70
2023/12/14 02:40:00;;;;;;;10.50;7.13;;;3.30;1.00;;;;;;5074273;28;20483;-65
2023/12/14 02:42:26;;;;;;;9.73;6.90;;;3.40;1.00;;;;;;5074465;28;20409;-68
2023/12/14 02:44:53;;;;;;;6.60;5.93;;;3.40;1.00;;;;;;5074967;28;20404;-68
2023/12/14 02:47:18;;;;;;;9.03;6.57;;;3.30;1.00;;;;;;5075188;28;20431;-65
2023/12/14 02:49:44;;;;;;;8.53;6.50;;;3.30;1.00;;;;;;5075866;28;20397;-69
2023/12/14 02:52:10;;;;;;;11.47;7.27;;;3.30;1.00;;;;;;5074255;28;20649;-66
2023/12/14 02:54:39;;;;;;;8.00;6.93;;;3.30;1.00;;;;;;5066582;28;20202;-68
2023/12/14 02:57:05;;;;;;;10.83;6.77;;;3.30;1.00;;;;;;5074119;28;20197;-68
2023/12/14 02:59:31;;;;;;;15.27;6.57;;;3.40;1.00;;;;;;5075204;28;20409;-66
2023/12/14 03:01:57;;;;;;;14.20;7.10;;;3.40;1.00;;;;;;5073273;28;20486;-67
2023/12/14 03:04:22;;;;;;;7.50;5.90;;;3.40;1.00;;;;;;5073887;28;20182;-73
2023/12/14 03:06:48;;;;;;;12.73;7.57;;;3.40;1.00;;;;;;5073501;28;20190;-67
2023/12/14 03:09:14;;;;;;;11.43;6.60;;;3.40;1.00;;;;;;5072204;28;20656;-64
2023/12/14 03:11:40;;;;;;;12.10;6.60;;;3.50;1.00;;;;;;5073263;28;20178;-69
2023/12/14 03:14:05;;;;;;;10.70;5.63;;;3.40;1.00;;;;;;5075244;28;20262;-66
2023/12/14 03:16:31;;;;;;;11.00;9.03;;;3.40;1.00;;;;;;5072765;28;20213;-66
2023/12/14 03:18:57;;;;;;;12.77;6.97;;;3.40;1.00;;;;;;5075091;28;20593;-65
2023/12/14 03:21:23;;;;;;;9.60;6.80;;;3.40;1.00;;;;;;5074657;28;20167;-64
2023/12/14 03:23:50;;;;;;;7.07;6.33;;;3.40;1.00;;;;;;5068837;28;20435;-66
2023/12/14 03:26:15;;;;;;;14.53;6.40;;;3.50;1.00;;;;;;5068106;28;20433;-68
2023/12/14 03:28:41;;;;;;;9.50;7.20;;;3.50;1.00;;;;;;5072138;28;20467;-65
2023/12/14 03:31:10;;;;;;;9.07;6.03;;;3.40;1.00;;;;;;5074867;28;20238;-67
2023/12/14 03:33:36;;;;;;;13.70;6.17;;;3.40;1.00;;;;;;5073073;28;20670;-68
2023/12/14 03:36:02;;;;;;;11.57;6.60;;;3.50;1.00;;;;;;5070752;28;20431;-66
2023/12/14 03:38:28;;;;;;;7.03;5.73;;;3.40;1.00;;;;;;5067615;28;20479;-65
2023/12/14 03:40:53;;;;;;;8.23;6.40;;;3.40;1.00;;;;;;5053206;28;20398;-67
2023/12/14 03:43:19;;;;;;;10.30;7.07;;;3.50;1.00;;;;;;5054186;28;20179;-68
2023/12/14 03:45:45;;;;;;;11.10;6.90;;;3.40;1.00;;;;;;5054008;28;20312;-65
2023/12/14 03:48:11;;;;;;;11.40;7.07;;;3.40;1.00;;;;;;5054674;28;20539;-67
2023/12/14 03:50:36;;;;;;;11.33;6.00;;;3.30;1.00;;;;;;5066922;28;20189;-70
2023/12/14 03:53:02;;;;;;;14.43;7.33;;;3.40;1.00;;;;;;5072713;28;20413;-66
2023/12/14 03:55:28;;;;;;;13.47;7.00;;;3.40;1.00;;;;;;5073693;28;20248;-68
2023/12/14 03:57:53;;;;;;;8.23;6.17;;;3.40;1.00;;;;;;5066819;28;20197;-65
2023/12/14 04:00:19;;;;;;;10.80;6.27;;;3.40;1.00;;;;;;5061046;28;20174;-65
2023/12/14 04:02:45;;;;;;;11.43;8.00;;;3.30;1.00;;;;;;5072808;28;20729;-67
2023/12/14 04:05:10;;;;;;;11.23;7.10;;;3.30;1.00;;;;;;5073726;28;20197;-67
2023/12/14 04:07:40;;;;;;;6.53;5.23;;;3.30;1.00;;;;;;5074276;28;20190;-68
2023/12/14 04:10:09;;;;;;;12.33;7.07;;;3.40;1.00;;;;;;5073857;28;20530;-68
2023/12/14 04:12:39;;;;;;;10.70;6.97;;;3.40;1.00;;;;;;5062586;28;20464;-66
2023/12/14 04:15:06;;;;;;;9.47;6.20;;;3.30;1.00;;;;;;5063772;28;20460;-65
2023/12/14 04:17:31;;;;;;;12.03;6.37;;;3.30;1.00;;;;;;5073750;28;20455;-66
2023/12/14 04:19:57;;;;;;;10.47;7.33;;;3.40;1.00;;;;;;5073260;28;20435;-65
2023/12/14 04:22:23;;;;;;;9.17;7.00;;;3.40;1.00;;;;;;5073845;28;20197;-65
2023/12/14 04:24:49;;;;;;;12.50;6.27;;;3.40;1.00;;;;;;5072899;28;20777;-68
2023/12/14 04:27:15;;;;;;;12.27;6.73;;;3.40;1.00;;;;;;5073214;28;20213;-66
2023/12/14 04:29:41;;;;;;;11.30;7.27;;;3.40;1.00;;;;;;5058986;28;20422;-65
2023/12/14 04:32:07;;;;;;;12.63;6.70;;;3.40;1.00;;;;;;5052878;28;20179;-65
2023/12/14 04:34:32;;;;;;;9.73;6.57;;;3.30;1.00;;;;;;5052837;28;20689;-67
2023/12/14 04:36:58;;;;;;;9.30;7.23;;;3.30;1.00;;;;;;5054302;28;20804;-66
2023/12/14 04:39:24;;;;;;;8.10;7.30;;;3.30;1.00;;;;;;5070568;28;20206;-65
2023/12/14 04:41:52;;;;;;;14.87;6.77;;;3.30;1.00;;;;;;5062540;28;20206;-69
2023/12/14 04:44:18;;;;;;;10.40;6.70;;;3.30;1.00;;;;;;5053443;28;20401;-69
2023/12/14 04:46:43;;;;;;;9.97;7.17;;;3.20;1.00;;;;;;5052424;28;20758;-68
2023/12/14 04:49:09;;;;;;;11.37;8.10;;;3.30;1.00;;;;;;5053322;28;20398;-68
2023/12/14 04:51:35;;;;;;;8.67;7.13;;;3.30;1.00;;;;;;5053557;28;20169;-65
2023/12/14 04:54:00;;;;;;;11.63;6.70;;;3.30;1.00;;;;;;5053516;28;20198;-68
2023/12/14 04:56:26;;;;;;;14.33;7.97;;;3.30;1.00;;;;;;5063046;28;20174;-67
2023/12/14 04:58:52;;;;;;;16.50;7.57;;;3.30;1.00;;;;;;5073207;28;20571;-66
2023/12/14 05:01:17;;;;;;;13.30;7.70;;;3.30;1.00;;;;;;5073370;28;20159;-65
2023/12/14 05:03:43;;;;;;;8.80;7.33;;;3.20;1.00;;;;;;5066908;28;20632;-67
2023/12/14 05:06:09;;;;;;;11.00;8.27;;;3.30;1.00;;;;;;5052019;28;20172;-69
2023/12/14 05:08:35;;;;;;;9.83;7.27;;;3.30;1.00;;;;;;5050883;28;20512;-65
2023/12/14 05:11:01;;;;;;;8.20;6.73;;;3.30;1.00;;;;;;5068349;28;20171;-68
2023/12/14 05:13:26;;;;;;;11.27;6.40;;;3.30;1.00;;;;;;5073014;28;20392;-68
2023/12/14 05:15:52;;;;;;;15.37;8.83;;;3.30;1.00;;;;;;5071938;28;20263;-65
2023/12/14 05:18:18;;;;;;;11.70;7.57;;;3.30;1.00;;;;;;5073101;28;20204;-68
2023/12/14 05:20:45;;;;;;;13.03;7.70;;;3.30;1.00;;;;;;5071763;28;20166;-68
2023/12/14 05:23:12;;;;;;;10.23;7.50;;;3.30;1.00;;;;;;5069496;28;20936;-67
2023/12/14 05:25:38;;;;;;;13.00;7.87;;;3.30;1.00;;;;;;5071999;28;20447;-68
2023/12/14 05:28:04;;;;;;;7.87;6.13;;;3.30;1.00;;;;;;5073114;28;20418;-68
2023/12/14 05:30:30;;;;;;;10.13;7.87;;;3.30;1.00;;;;;;5068602;28;20432;-64
2023/12/14 05:32:55;;;;;;;13.30;8.27;;;3.20;1.00;;;;;;5054662;28;20174;-65
2023/12/14 05:35:21;;;;;;;9.43;7.17;;;3.20;1.00;;;;;;5055332;28;20453;-67
2023/12/14 05:37:47;;;;;;;7.90;6.67;;;3.30;1.00;;;;;;5055787;28;20194;-66
2023/12/14 05:40:13;;;;;;;7.83;6.43;;;3.20;1.00;;;;;;5056587;28;20570;-68
2023/12/14 05:42:38;;;;;;;9.03;7.73;;;3.30;1.00;;;;;;5061668;28;20487;-64
2023/12/14 05:45:08;;;;;;;13.57;6.20;;;3.20;1.00;;;;;;5054959;28;20213;-68
2023/12/14 05:47:34;;;;;;;7.90;7.10;;;3.30;1.00;;;;;;5056625;28;20237;-65
2023/12/14 05:50:03;;;;;;;11.70;6.73;;;3.30;1.00;;;;;;5060049;28;20420;-68
2023/12/14 05:52:29;;;;;;;10.00;7.30;;;3.20;1.00;;;;;;5056536;28;20459;-67
2023/12/14 05:54:55;;;;;;;9.93;6.63;;;3.30;1.00;;;;;;5065610;28;20460;-66
2023/12/14 05:57:20;;;;;;;8.10;7.10;;;3.30;1.00;;;;;;5075475;28;20197;-68
2023/12/14 05:59:46;;;;;;;8.87;7.60;;;3.20;1.00;;;;;;5076278;28;20588;-67
2023/12/14 06:02:12;;;;;;;9.40;6.90;;;3.20;1.00;;;;;;5072612;28;20171;-68
2023/12/14 06:04:37;;;;;;;10.90;7.87;;;3.20;1.00;;;;;;5056149;28;20233;-65
2023/12/14 06:07:03;;;;;;;11.23;8.40;;;3.20;1.00;;;;;;5056287;28;20190;-65
2023/12/14 06:09:33;;;;;;;7.17;6.47;;;3.20;1.00;;;;;;5056238;28;20601;-66
2023/12/14 06:12:03;;;;;;;9.17;6.80;;;3.30;1.00;;;;;;5056289;28;20171;-68
2023/12/14 06:14:29;;;;;;;10.10;5.97;;;3.30;1.00;;;;;;5055682;28;20530;-70
2023/12/14 06:16:55;;;;;;;6.80;6.07;;;3.30;1.00;;;;;;5063441;28;20475;-65
2023/12/14 06:19:21;;;;;;;10.40;6.93;;;3.30;1.00;;;;;;5072836;28;20519;-66
2023/12/14 06:21:47;;;;;;;8.57;7.37;;;3.30;1.00;;;;;;5075786;28;20968;-67
2023/12/14 06:24:13;;;;;;;6.80;6.20;;;3.30;1.00;;;;;;5075758;28;20179;-68
2023/12/14 06:26:42;;;;;;;10.80;7.23;;;3.30;1.00;;;;;;5073917;28;20761;-68
2023/12/14 06:29:09;;;;;;;6.90;6.20;;;3.20;1.00;;;;;;5056286;28;20560;-65
2023/12/14 06:31:35;;;;;;;11.43;7.03;;;3.20;1.00;;;;;;5071441;28;20432;-70
2023/12/14 06:34:03;;;;;;;7.50;6.67;;;3.20;1.00;;;;;;5074654;28;20547;-68
2023/12/14 06:36:33;;;;;;;7.70;6.43;;;3.20;1.00;;;;;;5070364;28;20174;-66
2023/12/14 06:38:59;;;;;;;6.27;5.73;;;3.20;1.00;;;;;;5071994;28;20454;-68
2023/12/14 06:41:26;;;;;;;16.97;6.70;;;3.20;1.00;;;;;;5074752;28;20882;-65
2023/12/14 06:43:52;;;;;;;13.60;7.00;;;3.30;1.00;;;;;;5071377;28;20940;-65
2023/12/14 06:46:18;;;;;;;10.57;5.77;;;3.20;1.00;;;;;;5073630;28;20501;-66
2023/12/14 06:48:45;;;;;;;7.67;6.90;;;3.20;1.00;;;;;;5074497;28;20418;-69
2023/12/14 06:51:10;;;;;;;7.60;6.40;;;3.20;1.00;;;;;;5063858;28;20774;-68
2023/12/14 06:53:39;;;;;;;7.07;6.37;;;3.20;1.00;;;;;;5054282;28;20394;-70
2023/12/14 06:56:09;;;;;;;10.87;6.03;;;3.20;1.00;;;;;;5053204;28;20174;-65
2023/12/14 06:58:35;;;;;;;11.73;5.30;;;3.20;1.00;;;;;;5054386;28;20436;-70
2023/12/14 07:01:00;;;;;;;8.43;5.77;;;3.20;1.00;;;;;;5057060;28;20416;-65
2023/12/14 07:03:26;;;;;;;5.60;5.10;;;3.20;1.00;;;;;;5064727;28;20465;-65
2023/12/14 07:05:52;;;;;;;5.23;4.83;;;3.20;1.00;;;;;;5069947;28;20193;-66
2023/12/14 07:08:17;;;;;;;5.33;4.93;;;3.10;1.00;;;;;;5070540;28;20269;-65
2023/12/14 07:10:43;;;;;;;5.87;5.37;;;3.10;1.00;;;;;;5072552;28;20223;-69
2023/12/14 07:13:09;;;;;;;9.23;5.00;;;3.10;1.00;;;;;;5070602;28;20261;-65
2023/12/14 07:15:34;;;;;;;6.27;5.67;;;3.10;1.00;;;;;;5073185;28;20197;-66
2023/12/14 07:18:00;;;;;;;5.50;4.97;;;3.10;1.00;;;;;;5072028;28;20205;-65
2023/12/14 07:20:26;;;;;;;7.37;4.93;;;3.10;1.00;;;;;;5072720;28;20162;-69
2023/12/14 07:22:51;;;;;;;5.60;4.97;;;3.10;1.00;;;;;;5068825;28;20718;-69
2023/12/14 07:25:17;;;;;;;5.47;4.97;;;3.10;1.00;;;;;;5028592;28;1214487;-65
2023/12/14 07:27:43;;;;;;;6.33;5.70;;;3.10;1.00;;;;;;5074899;28;20190;-65
2023/12/14 07:30:10;;;;;;;6.77;5.27;;;3.20;1.00;;;;;;5072392;28;20186;-68
2023/12/14 07:32:35;;;;;;;5.70;5.20;;;3.30;1.00;;;;;;5070885;28;20424;-65
2023/12/14 07:35:01;;;;;;;5.80;4.93;;;3.30;1.00;;;;;;5057049;28;20461;-68
2023/12/14 07:37:26;;;;;;;6.87;5.87;;;3.20;1.00;;;;;;5053870;28;20191;-65
2023/12/14 07:39:52;;;;;;;7.60;5.77;;;3.20;1.00;;;;;;5066171;28;20520;-66
2023/12/14 07:42:20;;;;;;;9.60;4.90;;;3.20;1.00;;;;;;5073333;28;20174;-66
2023/12/14 07:44:46;;;;;;;7.63;5.83;;;3.20;1.00;;;;;;5053967;28;20191;-67
2023/12/14 07:47:12;;;;;;;6.53;5.47;;;3.20;1.00;;;;;;5051395;28;20454;-68
2023/12/14 07:49:38;;;;;;;7.17;6.20;;;3.30;1.00;;;;;;5053067;28;20437;-69
2023/12/14 07:52:04;;;;;;;7.03;6.33;;;3.30;1.00;;;;;;5066672;28;20252;-65
2023/12/14 07:54:29;;;;;;;8.57;6.20;;;3.30;1.00;;;;;;5051257;28;20234;-75
2023/12/14 07:56:55;;;;;;;7.50;5.67;;;3.20;1.00;;;;;;5052137;28;20905;-69
2023/12/14 07:59:21;;;;;;;9.43;6.23;;;3.20;1.00;;;;;;5054172;28;20571;-67
2023/12/14 08:01:47;;;;;;;6.73;5.97;;;3.20;1.00;;;;;;5066040;28;20174;-69
2023/12/14 08:04:13;;;;;;;8.43;6.13;;;3.20;1.00;;;;;;5071246;28;20186;-67
2023/12/14 08:06:42;;;;;;;7.23;5.60;;;3.20;1.00;;;;;;5073229;28;20743;-69
2023/12/14 08:09:08;;;;;;;6.47;5.47;;;3.30;1.00;;;;;;5072184;28;20266;-70
2023/12/14 08:11:34;;;;;;;11.97;5.50;;;3.30;1.00;;;;;;5074133;28;20455;-67
2023/12/14 08:13:59;;;;;;;7.70;5.10;;;3.30;1.00;;;;;;5067681;28;20429;-66
2023/12/14 08:16:25;;;;;;;10.00;5.27;;;3.40;1.00;;;;;;5072863;28;20808;-70
2023/12/14 08:18:51;;;;;;;7.97;5.83;;;3.40;1.00;;;;;;5070077;28;20229;-69
2023/12/14 08:21:18;;;;;;;6.50;4.63;;;3.50;1.00;;;;;;5071957;28;20696;-66
2023/12/14 08:23:44;;;;;;;11.23;6.10;;;3.50;1.00;;;;;;5067450;28;20657;-66
2023/12/14 08:26:12;;;;;;;6.50;5.80;;;3.50;1.00;;;;;;5056222;28;20428;-66
2023/12/14 08:28:41;;;;;;;7.07;5.83;;;3.60;1.00;;;;;;5057062;28;20452;-73
2023/12/14 08:31:09;;;;;;;5.60;5.10;;;3.60;1.00;;;;;;5053825;28;20395;-71
2023/12/14 08:33:35;;;;;;;5.93;5.33;;;3.50;1.00;;;;;;5065709;28;20441;-65
2023/12/14 08:36:01;;;;;;;7.50;4.93;;;3.50;1.00;;;;;;5066293;28;20959;-67
2023/12/14 08:38:26;;;;;;;7.30;5.83;;;3.50;1.00;;;;;;5062222;28;20200;-69
2023/12/14 08:40:52;;;;;;;5.43;4.93;;;3.50;1.00;;;;;;5053132;28;20173;-65
2023/12/14 08:43:18;;;;;;;8.00;5.70;;;3.50;1.00;;;;;;5053770;28;20748;-65
2023/12/14 08:45:43;;;;;;;7.43;5.67;;;3.60;1.00;;;;;;5063389;28;20175;-65
2023/12/14 08:48:09;;;;;;;6.13;5.53;;;3.50;1.00;;;;;;5071779;28;20216;-67
2023/12/14 08:50:35;;;;;;;5.67;5.17;;;3.60;1.00;;;;;;5066193;28;20207;-69
2023/12/14 08:53:00;;;;;;;7.73;4.80;;;3.60;1.00;;;;;;5073432;28;20172;-69
2023/12/14 08:55:26;;;;;;;6.70;6.10;;;3.60;1.00;;;;;;5071219;28;20606;-65
2023/12/14 08:57:52;;;;;;;9.53;6.30;;;3.60;1.00;;;;;;5069399;28;20286;-66
2023/12/14 09:00:18;;;;;;;7.60;6.07;;;3.60;1.00;;;;;;5068532;28;20514;-68
2023/12/14 09:02:48;;;;;;;7.77;5.87;;;3.60;1.00;;;;;;5067891;28;20261;-70
2023/12/14 09:05:14;;;;;;;7.27;6.53;;;3.60;1.00;;;;;;5055827;28;20800;-70
2023/12/14 09:07:40;;;;;;;7.90;5.90;;;3.60;1.00;;;;;;5054770;28;20450;-69
2023/12/14 09:10:06;;;;;;;7.40;5.77;;;3.60;1.00;;;;;;5073392;28;20501;-65
2023/12/14 09:12:34;;;;;;;8.50;6.63;;;3.60;1.00;;;;;;5070086;28;20182;-68
2023/12/14 09:15:00;;;;;;;6.23;5.63;;;3.60;1.00;;;;;;5063530;28;20562;-77
2023/12/14 09:17:31;;;;;;;7.97;5.53;;;3.60;1.00;;;;;;5063858;28;20501;-69
2023/12/14 09:19:57;;;;;;;8.60;5.87;;;3.70;1.00;;;;;;5065262;28;20505;-69
2023/12/14 09:22:23;;;;;;;8.20;6.23;;;3.60;1.00;;;;;;5061469;28;20438;-68
2023/12/14 09:24:48;;;;;;;10.40;6.30;;;3.60;1.00;;;;;;5072150;28;20195;-69
2023/12/14 09:27:14;;;;;;;7.20;5.23;;;3.60;1.00;;;;;;5064760;28;20214;-69
2023/12/14 09:29:40;;;;;;;7.83;7.00;;;3.60;1.00;;;;;;5073315;28;20175;-66
2023/12/14 09:32:08;;;;;;;6.73;6.07;;;3.70;1.00;;;;;;5068363;28;20831;-69
2023/12/14 09:34:34;;;;;;;8.40;5.97;;;3.70;1.00;;;;;;5069820;28;20237;-69
2023/12/14 09:37:00;;;;;;;12.77;7.20;;;3.70;1.00;;;;;;5064490;28;20485;-66
2023/12/14 09:39:27;;;;;;;6.50;5.77;;;3.70;1.00;;;;;;5050863;28;20184;-66
2023/12/14 09:42:04;;;;;;;8.60;6.00;;;3.70;1.00;;;;;;5051487;28;20170;-67
2023/12/14 09:44:30;;;;;;;8.60;6.63;;;3.80;1.00;;;;;;5059817;28;20405;-75
2023/12/14 09:46:59;;;;;;;8.23;6.67;;;3.80;1.00;;;;;;5058293;28;20542;-66
2023/12/14 09:49:29;;;;;;;7.57;6.00;;;3.70;1.00;;;;;;5047366;28;20439;-67
2023/12/14 09:51:56;;;;;;;5.63;5.07;;;3.70;1.00;;;;;;5051414;28;20786;-66
2023/12/14 09:54:22;;;;;;;7.30;6.10;;;3.70;1.00;;;;;;5050936;28;20517;-73
2023/12/14 09:56:48;;;;;;;11.52;6.20;;;3.70;1.00;;;;;;5053232;28;20306;-70
2023/12/14 09:59:15;;;;;;;7.20;6.10;;;3.70;1.00;;;;;;5042788;28;20181;-70
2023/12/14 10:01:41;;;;;;;6.57;5.40;;;3.60;1.00;;;;;;5032450;28;20462;-69
2023/12/14 10:04:06;;;;;;;8.73;6.40;;;3.70;1.00;;;;;;5045928;28;20461;-67
2023/12/14 10:06:33;;;;;;;11.73;5.97;;;3.70;1.00;;;;;;5035961;28;20181;-66
2023/12/14 10:08:58;;;;;;;7.17;6.07;;;3.70;1.00;;;;;;5049048;28;20262;-67
2023/12/14 10:11:24;;;;;;;10.63;9.60;;;3.70;1.00;;;;;;5050336;28;21079;-68
2023/12/14 10:13:50;;;;;;;7.17;6.20;;;3.70;1.00;;;;;;5050581;28;20187;-67
2023/12/14 10:16:34;;;;;;;7.47;6.47;;;3.70;1.00;;;;;;5049614;28;20190;-68
2023/12/14 10:19:00;;;;;;;7.27;6.17;;;3.60;1.00;;;;;;5053363;28;20544;-66
2023/12/14 10:21:27;;;;;;;7.70;6.23;;;3.60;1.00;;;;;;5055627;28;20944;-71
2023/12/14 10:23:56;;;;;;;9.93;6.60;;;3.60;1.00;;;;;;5070064;28;20459;-70
2023/12/14 10:26:26;;;;;;;9.67;6.30;;;3.60;1.00;;;;;;5062611;28;20426;-70
2023/12/14 10:28:52;;;;;;;6.73;6.10;;;3.60;1.00;;;;;;5070481;28;20449;-67
2023/12/14 10:31:21;;;;;;;7.60;6.20;;;3.70;1.00;;;;;;5075959;28;20404;-70
2023/12/14 10:33:48;;;;;;;12.40;6.40;;;3.70;1.00;;;;;;5075539;28;20394;-66
2023/12/14 10:36:17;;;;;;;10.17;6.40;;;3.70;1.00;;;;;;5069442;28;20426;-72
2023/12/14 10:38:45;;;;;;;7.57;6.33;;;3.70;1.00;;;;;;5068895;28;21000;-70
2023/12/14 10:41:13;;;;;;;9.00;6.10;;;3.70;1.00;;;;;;5055416;28;20403;-66
2023/12/14 10:43:41;;;;;;;10.13;6.80;;;3.70;1.00;;;;;;5053704;28;20441;-69
2023/12/14 10:46:09;;;;;;;6.47;5.77;;;3.70;1.00;;;;;;5059921;28;20956;-70
2023/12/14 10:48:42;;;;;;;7.47;6.43;;;3.70;1.00;;;;;;5059676;28;20470;-66
2023/12/14 10:51:09;;;;;;;10.20;6.13;;;3.80;1.00;;;;;;5053741;28;20523;-68
2023/12/14 10:53:35;;;;;;;23.97;7.70;;;3.80;1.00;;;;;;5056987;28;20438;-67
2023/12/14 10:56:07;;;;;;;6.87;6.20;;;3.90;1.00;;;;;;5073931;28;20966;-72
2023/12/14 10:58:52;;;;;;;6.00;5.47;;;3.90;1.00;;;;;;5056091;28;20932;-69
2023/12/14 11:01:27;;;;;;;9.07;5.77;;;4.00;1.00;;;;;;5062901;28;20432;-69
2023/12/14 11:03:58;;;;;;;8.83;6.57;;;4.00;1.00;;;;;;5056051;28;20451;-66
2023/12/14 11:06:37;;;;;;;5.90;5.40;;;3.90;1.00;;;;;;5073614;28;20436;-69
2023/12/14 11:09:14;;;;;;;9.50;6.70;;;3.90;1.00;;;;;;5061051;28;20389;-72
2023/12/14 11:11:47;;;;;;;8.30;6.10;;;3.90;1.00;;;;;;5075267;28;20388;-71
2023/12/14 11:14:13;;;;;;;7.50;6.17;;;3.80;1.00;;;;;;5054875;28;20517;-69
2023/12/14 11:16:46;;;;;;;9.23;6.43;;;3.80;1.00;;;;;;5050628;28;20950;-69
2023/12/14 11:19:24;;;;;;;6.70;6.10;;;3.80;1.00;;;;;;5055126;28;20894;-66
2023/12/14 11:22:05;;;;;;;6.30;5.67;;;3.80;1.00;;;;;;5062248;28;20431;-66
2023/12/14 11:24:31;;;;;;;7.53;6.83;;;3.80;1.00;;;;;;5061144;28;20430;-75
2023/12/14 11:26:57;;;;;;;7.73;6.47;;;3.80;1.00;;;;;;5056980;28;20490;-69
2023/12/14 11:29:23;;;;;;;9.30;5.50;;;3.80;1.00;;;;;;5053270;28;20939;-69
2023/12/14 11:31:48;;;;;;;7.50;6.77;;;3.90;1.00;;;;;;5053558;28;20673;-69
2023/12/14 11:34:17;;;;;;;8.87;5.53;;;3.80;1.00;;;;;;5051717;28;20237;-72
2023/12/14 11:36:45;;;;;;;6.90;5.93;;;3.80;1.00;;;;;;5050419;28;20233;-70
2023/12/14 11:39:11;;;;;;;8.27;6.10;;;3.80;1.00;;;;;;5057064;28;20508;-69
2023/12/14 11:41:38;;;;;;;8.13;5.60;;;3.80;1.00;;;;;;5069647;28;20548;-66
2023/12/14 11:44:05;;;;;;;6.27;4.67;;;3.90;1.00;;;;;;5060667;28;20166;-70
2023/12/14 11:46:31;;;;;;;5.57;5.07;;;3.90;1.00;;;;;;5054532;28;20456;-69
2023/12/14 11:48:58;;;;;;;6.53;5.93;;;4.00;1.00;;;;;;5053342;28;20445;-66
2023/12/14 11:51:25;;;;;;;6.47;5.43;;;4.10;1.00;;;;;;5038697;28;20423;-67
2023/12/14 11:53:51;;;;;;;7.67;5.30;;;4.30;1.00;;;;;;5051499;28;20755;-67
2023/12/14 11:56:18;;;;;;;6.40;5.73;;;4.30;1.00;;;;;;5036533;28;20484;-69
2023/12/14 11:58:47;;;;;;;7.20;6.03;;;4.30;1.00;;;;;;5057874;28;20238;-69
2023/12/14 12:01:25;;;;;;;6.93;6.33;;;4.30;1.00;;;;;;5063311;28;20438;-67
2023/12/14 12:03:51;;;;;;;6.00;5.40;;;4.30;99.90;;;;;;5053510;28;20445;-66
2023/12/14 12:06:24;;;;;;;5.63;5.10;;;4.30;99.90;;;;;;5068849;28;20515;-67
2023/12/14 12:08:51;;;;;;;3.50;3.20;;;4.30;99.90;;;;;;5036626;28;20202;-66
2023/12/14 12:11:18;;;;;;;4.37;3.97;;;4.20;99.90;;;;;;5053906;28;20910;-68
2023/12/14 12:13:44;;;;;;;3.70;3.40;;;4.10;99.90;;;;;;5037403;28;20523;-70
2023/12/14 12:16:10;;;;;;;3.93;3.60;;;4.00;99.90;;;;;;5032819;28;21053;-69
2023/12/14 12:18:35;;;;;;;4.07;3.77;;;4.00;99.90;;;;;;5059290;28;20605;-67
2023/12/14 12:21:05;;;;;;;3.80;3.50;;;4.10;99.90;;;;;;5065558;28;20186;-66
2023/12/14 12:23:30;;;;;;;4.10;3.70;;;4.20;99.90;;;;;;5051935;28;20173;-66
2023/12/14 12:25:56;;;;;;;4.30;3.90;;;4.20;99.90;;;;;;5065330;28;20812;-68
2023/12/14 12:28:22;;;;;;;4.03;3.50;;;4.30;99.90;;;;;;5072425;28;20221;-68
2023/12/14 12:30:47;;;;;;;4.07;3.77;;;4.40;99.90;;;;;;5073444;28;20245;-67
2023/12/14 12:33:13;;;;;;;4.63;3.80;;;4.40;99.90;;;;;;5050337;28;20185;-68
2023/12/14 12:35:39;;;;;;;4.60;4.20;;;4.40;99.90;;;;;;5046551;28;20209;-67
2023/12/14 12:38:05;;;;;;;4.20;3.90;;;4.40;99.90;;;;;;5071749;28;20196;-68
2023/12/14 12:40:33;;;;;;;4.70;3.73;;;4.40;99.90;;;;;;5070859;28;20460;-67
2023/12/14 12:42:59;;;;;;;5.10;4.60;;;4.40;99.90;;;;;;5057155;28;20233;-66
2023/12/14 12:45:27;;;;;;;5.00;4.60;;;4.30;99.90;;;;;;5033611;28;20960;-67
2023/12/14 12:47:53;;;;;;;6.73;5.07;;;4.30;99.90;;;;;;5053432;28;20953;-69
2023/12/14 12:50:20;;;;;;;4.83;4.50;;;4.30;99.90;;;;;;5053189;28;20461;-69
2023/12/14 12:52:48;;;;;;;4.97;4.57;;;4.40;99.90;;;;;;5052272;28;20432;-69
2023/12/14 12:55:14;;;;;;;5.20;4.80;;;4.40;99.90;;;;;;5049272;28;20538;-69
2023/12/14 12:57:41;;;;;;;4.20;3.90;;;4.40;99.90;;;;;;5051680;28;20493;-69
2023/12/14 13:00:11;;;;;;;7.73;5.20;;;4.40;99.90;;;;;;5067233;28;20424;-73